Strona główna
METAR-TAF:

METAR-TAF

Lotnisko :

Meekatharra, Australia

Szerokość geograficzna: 26-36-42S, Długość geograficzna: 118-32-52E, wysokość: 522 m

Aktualna obserwacja pogody

Raport powstał 45 minut temu, godzina 09:00 UTC
Wiatr 9 kt od wschodnio-południowy wschód
Temperatura 28°C
Wilgotność 17%
Ciśnienie 1015 hPa
Widzialność 10 km lub więcej

METAR: YMEK 030900Z AUTO 11009KT 9999 // NCD 28/01 Q1015

czas: 17:45 (09:45 UTC)


TAF: brakujący

Obserwacja i prognoza pogody dla ponad 4000 lotnisk (raport METAR i TAF).

Dostępne stacje oznaczono żółtymi i czerwonymi punktami na mapie.

Najedź kursorem aby zobaczyć nazwę stacji.

Kliknij aby zobaczyć obserwacje i prognozy pogody.

Aby zmienić mapę: kliknij na zielony przycisk z czarnym krzyżykiem, aby powiększyć; na zielony przycisk z myślnikiem, aby pomniejszyć; na zielone strzałki, aby przejść do map sąsiednich.


METAR-TAF: